Time;durP1;ratioP1;P1;durP2;ratioP2;P2;SDS_P1;SDS_P2;PMS_P1;PMS_P2;Temp;Humidity;BMP_temperature;BMP_pressure;BME280_temperature;BME280_humidity;BME280_pressure;Samples;Min_cycle;Max_cycle;Signal;HPM_P1;HPM_P2
2021/01/06 00:02:01;;;;;;;3.97;1.80;;;22.10;31.30;;;;;;4978252;28;20037;-45
2021/01/06 00:04:27;;;;;;;4.03;1.58;;;22.10;31.30;;;;;;4982415;28;20185;-44
2021/01/06 00:06:53;;;;;;;1.85;1.40;;;22.00;31.30;;;;;;4984656;28;20426;-42
2021/01/06 00:09:19;;;;;;;2.15;1.42;;;22.00;31.30;;;;;;4979336;28;20026;-42
2021/01/06 00:11:44;;;;;;;2.00;1.40;;;22.00;31.30;;;;;;4983648;28;20022;-43
2021/01/06 00:14:14;;;;;;;2.03;1.40;;;22.00;31.30;;;;;;4982618;28;20101;-41
2021/01/06 00:16:40;;;;;;;1.50;1.30;;;22.00;31.30;;;;;;4979975;28;20109;-42
2021/01/06 00:19:06;;;;;;;2.08;1.20;;;22.00;31.30;;;;;;4983102;28;20113;-41
2021/01/06 00:21:32;;;;;;;1.45;1.20;;;22.00;31.30;;;;;;4981057;28;20043;-42
2021/01/06 00:24:01;;;;;;;2.40;1.33;;;22.00;31.40;;;;;;4985127;28;20023;-48
2021/01/06 00:26:31;;;;;;;1.10;1.00;;;22.00;31.40;;;;;;4981517;28;20403;-44
2021/01/06 00:28:56;;;;;;;1.70;1.27;;;22.00;31.40;;;;;;4981894;28;20158;-44
2021/01/06 00:31:22;;;;;;;2.00;1.30;;;22.00;32.10;;;;;;4983609;28;20433;-45
2021/01/06 00:33:48;;;;;;;2.10;1.38;;;21.90;31.40;;;;;;4984144;28;20022;-43
2021/01/06 00:36:20;;;;;;;1.55;1.30;;;21.90;31.40;;;;;;4983179;28;20037;-43
2021/01/06 00:38:45;;;;;;;2.55;1.20;;;21.90;31.40;;;;;;4988606;28;20030;-41
2021/01/06 00:41:11;;;;;;;2.25;1.55;;;21.90;31.40;;;;;;4986168;28;20029;-42
2021/01/06 00:43:37;;;;;;;1.90;1.25;;;21.90;31.50;;;;;;4982493;28;20430;-42
2021/01/06 00:46:03;;;;;;;1.73;1.13;;;21.90;31.50;;;;;;4981505;28;20366;-43
2021/01/06 00:48:29;;;;;;;1.63;1.35;;;21.90;31.50;;;;;;4981730;28;20037;-42
2021/01/06 00:50:59;;;;;;;2.45;1.50;;;21.90;31.60;;;;;;4981796;28;20035;-41
2021/01/06 00:53:26;;;;;;;2.60;1.70;;;21.80;31.60;;;;;;4981314;28;20041;-42
2021/01/06 00:55:57;;;;;;;2.03;1.40;;;21.80;31.70;;;;;;4966180;28;20113;-42
2021/01/06 00:58:25;;;;;;;1.70;1.20;;;21.80;31.70;;;;;;4980632;28;20022;-43
2021/01/06 01:00:53;;;;;;;1.88;1.30;;;21.80;31.70;;;;;;4983449;28;20109;-43
2021/01/06 01:03:19;;;;;;;2.15;1.40;;;21.80;31.70;;;;;;4981449;28;20436;-45
2021/01/06 01:05:50;;;;;;;2.00;1.42;;;21.80;31.70;;;;;;4965633;28;20056;-42
2021/01/06 01:08:16;;;;;;;1.48;1.20;;;21.80;31.70;;;;;;4979749;28;20031;-45
2021/01/06 01:10:47;;;;;;;1.30;1.02;;;21.80;31.70;;;;;;4981928;28;20065;-41
2021/01/06 01:13:24;;;;;;;1.30;1.10;;;21.80;31.70;;;;;;4983513;28;20030;-43
2021/01/06 01:15:53;;;;;;;1.50;1.38;;;21.70;31.60;;;;;;4980010;28;20148;-41
2021/01/06 01:18:22;;;;;;;1.83;1.33;;;21.80;31.70;;;;;;4982322;28;20438;-46
2021/01/06 01:20:54;;;;;;;1.67;1.30;;;21.70;31.60;;;;;;4983874;28;20045;-43
2021/01/06 01:23:22;;;;;;;2.17;1.50;;;21.70;31.60;;;;;;4989275;28;20449;-42
2021/01/06 01:25:49;;;;;;;1.95;1.30;;;21.70;31.60;;;;;;4987595;28;20034;-41
2021/01/06 01:28:16;;;;;;;1.88;1.40;;;21.70;31.60;;;;;;4987457;28;20469;-41
2021/01/06 01:30:42;;;;;;;1.77;1.30;;;21.70;31.70;;;;;;4985095;28;20034;-41
2021/01/06 01:33:08;;;;;;;1.60;1.13;;;21.70;31.70;;;;;;4985315;28;20049;-40
2021/01/06 01:35:35;;;;;;;1.52;1.20;;;21.70;31.70;;;;;;4985895;28;20022;-44
2021/01/06 01:38:04;;;;;;;1.45;1.20;;;21.70;31.80;;;;;;4986315;28;20039;-42
2021/01/06 01:40:33;;;;;;;1.38;1.15;;;21.70;31.80;;;;;;4986865;28;20118;-42
2021/01/06 01:43:12;;;;;;;1.70;1.38;;;21.70;31.80;;;;;;4984525;28;20648;-44
2021/01/06 01:45:50;;;;;;;1.55;1.23;;;21.70;31.80;;;;;;4987895;28;20038;-42
2021/01/06 01:48:50;;;;;;;2.00;1.40;;;21.70;31.80;;;;;;4985479;28;20152;-42
2021/01/06 01:51:28;;;;;;;1.77;1.23;;;21.70;31.80;;;;;;4987037;28;20046;-45
2021/01/06 01:54:04;;;;;;;2.45;1.52;;;21.60;31.70;;;;;;4984437;28;20070;-43
2021/01/06 01:56:49;;;;;;;1.65;1.23;;;21.60;31.80;;;;;;4985786;28;20347;-43
2021/01/06 01:59:33;;;;;;;1.77;1.38;;;21.60;31.70;;;;;;4984387;28;20031;-42
2021/01/06 02:02:06;;;;;;;1.58;1.15;;;21.60;31.80;;;;;;4985120;28;20497;-45
2021/01/06 02:04:41;;;;;;;1.60;1.10;;;21.60;31.80;;;;;;4983745;28;20049;-42
2021/01/06 02:07:15;;;;;;;2.35;1.38;;;21.60;31.80;;;;;;4984367;28;20047;-45
2021/01/06 02:10:04;;;;;;;1.17;1.00;;;21.50;31.70;;;;;;4982717;28;20046;-44
2021/01/06 02:12:59;;;;;;;1.10;0.90;;;21.50;31.70;;;;;;4987576;28;20296;-44
2021/01/06 02:15:36;;;;;;;1.58;1.20;;;21.50;31.70;;;;;;4985720;28;20446;-42
2021/01/06 02:18:03;;;;;;;0.98;0.88;;;21.50;31.70;;;;;;4986079;28;20038;-46
2021/01/06 02:20:29;;;;;;;1.40;1.00;;;21.50;31.70;;;;;;4984869;28;20031;-46
2021/01/06 02:22:56;;;;;;;1.77;1.17;;;21.50;31.70;;;;;;4969134;28;20061;-42
2021/01/06 02:25:25;;;;;;;2.97;1.33;;;21.50;31.70;;;;;;4984438;28;20381;-42
2021/01/06 02:27:51;;;;;;;1.58;1.02;;;21.50;31.70;;;;;;4982782;28;20042;-43
2021/01/06 02:30:18;;;;;;;1.00;0.90;;;21.50;31.70;;;;;;4985821;28;20096;-42
2021/01/06 02:32:44;;;;;;;1.50;1.10;;;21.40;31.70;;;;;;4983021;28;20458;-43
2021/01/06 02:35:12;;;;;;;1.35;0.90;;;21.50;31.70;;;;;;4985527;28;20085;-44
2021/01/06 02:37:39;;;;;;;1.60;1.13;;;21.40;31.60;;;;;;4967680;28;20429;-41
2021/01/06 02:40:06;;;;;;;1.92;1.02;;;21.40;31.60;;;;;;4986100;28;20026;-41
2021/01/06 02:42:32;;;;;;;1.10;0.95;;;21.50;31.70;;;;;;4985640;28;20505;-43
2021/01/06 02:44:59;;;;;;;1.38;1.10;;;21.50;31.70;;;;;;4987031;28;20061;-42
2021/01/06 02:47:25;;;;;;;1.67;1.17;;;21.40;32.30;;;;;;4986814;28;20077;-41
2021/01/06 02:49:51;;;;;;;1.80;1.15;;;21.40;31.60;;;;;;4986937;28;20026;-41
2021/01/06 02:52:26;;;;;;;1.40;1.10;;;21.40;31.60;;;;;;4984786;28;20034;-41
2021/01/06 02:54:53;;;;;;;1.73;1.10;;;21.40;31.60;;;;;;4986083;28;20035;-43
2021/01/06 02:57:21;;;;;;;1.45;1.10;;;21.40;31.60;;;;;;4985528;28;20035;-42
2021/01/06 02:59:48;;;;;;;1.30;1.15;;;21.40;31.60;;;;;;4986171;28;20027;-42
2021/01/06 03:02:23;;;;;;;1.58;1.20;;;21.40;32.30;;;;;;4987404;28;20084;-44
2021/01/06 03:05:21;;;;;;;2.03;1.17;;;21.40;31.60;;;;;;4985055;28;20490;-41
2021/01/06 03:07:48;;;;;;;1.48;1.20;;;21.40;31.70;;;;;;4985164;28;20046;-42
2021/01/06 03:10:18;;;;;;;2.33;1.20;;;21.40;31.60;;;;;;4985059;28;20105;-42
2021/01/06 03:12:46;;;;;;;1.10;1.00;;;21.40;31.60;;;;;;4985201;28;20109;-42
2021/01/06 03:15:15;;;;;;;1.30;0.93;;;21.40;31.60;;;;;;4982649;28;20035;-44
2021/01/06 03:17:41;;;;;;;1.30;1.10;;;21.30;31.60;;;;;;4989087;28;20034;-42
2021/01/06 03:20:22;;;;;;;1.55;1.08;;;21.40;31.60;;;;;;4986283;28;20023;-42
2021/01/06 03:22:51;;;;;;;1.13;0.98;;;21.30;32.20;;;;;;4984806;28;20511;-43
2021/01/06 03:25:18;;;;;;;1.40;0.98;;;21.30;31.60;;;;;;4984930;28;20039;-42
2021/01/06 03:27:48;;;;;;;1.38;0.90;;;21.30;31.60;;;;;;4985672;28;20108;-45
2021/01/06 03:30:19;;;;;;;1.30;1.00;;;21.30;31.60;;;;;;4976921;28;20142;-42
2021/01/06 03:32:58;;;;;;;2.65;1.20;;;21.30;31.60;;;;;;4984321;28;20055;-42
2021/01/06 03:35:39;;;;;;;1.35;0.93;;;21.30;31.60;;;;;;4995980;28;20181;-43
2021/01/06 03:38:36;;;;;;;2.10;0.98;;;21.30;31.60;;;;;;4982738;28;20517;-45
2021/01/06 03:41:05;;;;;;;1.80;1.23;;;21.30;31.60;;;;;;4966844;28;20085;-43
2021/01/06 03:43:34;;;;;;;1.25;0.95;;;21.30;31.60;;;;;;4986803;28;20126;-41
2021/01/06 03:46:17;;;;;;;1.90;1.20;;;21.30;31.70;;;;;;4992627;28;20088;-43
2021/01/06 03:48:55;;;;;;;1.77;1.17;;;21.30;31.60;;;;;;4990330;28;20050;-43
2021/01/06 03:51:35;;;;;;;1.60;1.33;;;21.20;31.60;;;;;;4985408;28;20065;-42
2021/01/06 03:54:29;;;;;;;2.22;1.00;;;21.20;31.60;;;;;;4987600;28;20037;-42
2021/01/06 03:56:58;;;;;;;0.93;0.80;;;21.20;31.60;;;;;;4976742;28;20038;-43
2021/01/06 03:59:28;;;;;;;1.00;0.90;;;21.20;31.60;;;;;;4990477;28;20125;-40
2021/01/06 04:02:14;;;;;;;1.25;0.85;;;21.20;31.60;;;;;;4985465;28;20034;-44
2021/01/06 04:04:51;;;;;;;1.40;1.00;;;21.20;31.60;;;;;;4977503;28;20053;-43
2021/01/06 04:07:42;;;;;;;1.25;0.88;;;21.20;31.60;;;;;;4988371;28;20073;-43
2021/01/06 04:10:14;;;;;;;0.85;0.70;;;21.20;31.60;;;;;;4987036;28;20061;-40
2021/01/06 04:12:40;;;;;;;1.10;0.90;;;21.20;31.60;;;;;;4988252;28;20044;-42
2021/01/06 04:15:08;;;;;;;1.30;0.80;;;21.20;31.60;;;;;;4995058;28;20127;-44
2021/01/06 04:17:40;;;;;;;0.80;0.80;;;21.20;31.60;;;;;;4992679;28;20026;-44
2021/01/06 04:20:14;;;;;;;0.75;0.75;;;21.20;31.60;;;;;;4989568;28;20030;-43
2021/01/06 04:22:52;;;;;;;1.38;0.95;;;21.20;31.60;;;;;;4991136;28;20038;-48
2021/01/06 04:25:30;;;;;;;1.38;0.80;;;21.20;31.60;;;;;;4976035;28;20121;-46
2021/01/06 04:28:03;;;;;;;1.35;1.00;;;21.10;31.50;;;;;;4980193;28;20058;-47
2021/01/06 04:31:01;;;;;;;1.38;1.00;;;21.10;31.50;;;;;;4989775;28;20351;-45
2021/01/06 04:33:31;;;;;;;1.33;0.88;;;21.10;31.50;;;;;;4977987;28;20069;-42
2021/01/06 04:36:00;;;;;;;1.10;1.00;;;21.10;31.50;;;;;;4975556;28;20054;-41
2021/01/06 04:38:29;;;;;;;1.10;0.90;;;21.10;31.50;;;;;;4979626;28;20038;-42
2021/01/06 04:41:27;;;;;;;1.10;0.90;;;21.10;31.50;;;;;;4978522;28;20035;-41
2021/01/06 04:44:05;;;;;;;1.30;0.90;;;21.10;31.50;;;;;;4986699;28;20041;-43
2021/01/06 04:47:03;;;;;;;1.35;1.00;;;21.10;31.50;;;;;;4993367;28;20042;-41
2021/01/06 04:49:52;;;;;;;0.80;0.80;;;21.10;31.50;;;;;;4989466;28;20034;-42
2021/01/06 04:52:47;;;;;;;0.95;0.80;;;21.10;31.50;;;;;;4987191;28;20041;-42
2021/01/06 04:55:58;;;;;;;0.60;0.60;;;21.10;31.50;;;;;;4995278;28;20038;-45
2021/01/06 04:58:44;;;;;;;0.70;0.60;;;21.10;31.50;;;;;;4975663;28;20450;-41
2021/01/06 05:01:31;;;;;;;1.05;0.90;;;21.00;31.50;;;;;;4979525;28;20108;-42
2021/01/06 05:03:57;;;;;;;1.30;0.90;;;21.00;31.50;;;;;;4979774;28;20126;-41
2021/01/06 05:06:35;;;;;;;1.02;0.90;;;21.00;31.50;;;;;;4981437;28;20113;-42
2021/01/06 05:09:14;;;;;;;1.40;0.98;;;21.00;31.50;;;;;;4996144;28;20030;-45
2021/01/06 05:12:12;;;;;;;1.33;0.80;;;21.00;31.50;;;;;;4991512;28;20121;-41
2021/01/06 05:14:49;;;;;;;1.15;0.88;;;21.00;31.70;;;;;;4979576;28;20042;-43
2021/01/06 05:17:15;;;;;;;1.00;0.82;;;21.00;31.80;;;;;;4984034;28;20334;-42
2021/01/06 05:19:46;;;;;;;1.70;1.00;;;21.00;31.80;;;;;;4988039;28;20089;-44
2021/01/06 05:22:12;;;;;;;0.98;0.88;;;21.00;31.80;;;;;;4996455;28;20414;-42
2021/01/06 05:24:45;;;;;;;1.13;1.02;;;21.00;31.80;;;;;;4985069;28;20066;-45
2021/01/06 05:27:13;;;;;;;1.02;0.95;;;21.00;31.80;;;;;;4988333;28;20038;-42
2021/01/06 05:29:51;;;;;;;1.10;0.80;;;21.00;31.70;;;;;;4985435;28;20098;-42
2021/01/06 05:32:30;;;;;;;1.50;1.10;;;21.00;31.70;;;;;;4976465;28;20038;-42
2021/01/06 05:35:00;;;;;;;1.05;0.80;;;21.00;31.70;;;;;;4983670;28;20506;-41
2021/01/06 05:37:26;;;;;;;1.42;0.90;;;21.00;31.70;;;;;;4989320;28;20112;-43
2021/01/06 05:39:54;;;;;;;1.20;0.82;;;21.00;31.70;;;;;;4984740;28;20078;-43
2021/01/06 05:42:23;;;;;;;0.90;0.80;;;20.90;32.20;;;;;;4988474;28;20030;-43
2021/01/06 05:44:54;;;;;;;1.13;0.90;;;21.00;31.70;;;;;;4998403;28;20362;-42
2021/01/06 05:47:33;;;;;;;0.88;0.82;;;21.00;31.70;;;;;;4989126;28;20049;-45
2021/01/06 05:50:11;;;;;;;0.75;0.75;;;21.00;31.60;;;;;;4978885;28;20053;-44
2021/01/06 05:52:37;;;;;;;1.08;0.75;;;21.00;31.60;;;;;;4982526;28;20130;-43
2021/01/06 05:55:06;;;;;;;1.20;1.08;;;20.90;31.60;;;;;;4978675;28;20077;-42
2021/01/06 05:57:47;;;;;;;1.02;0.80;;;20.90;31.60;;;;;;4988016;28;20076;-40
2021/01/06 06:00:23;;;;;;;1.58;0.90;;;21.00;31.60;;;;;;4997175;28;20026;-41
2021/01/06 06:03:13;;;;;;;1.20;0.80;;;20.90;31.50;;;;;;4991570;28;20045;-42
2021/01/06 06:06:01;;;;;;;0.80;0.70;;;20.90;31.50;;;;;;4982308;28;20117;-41
2021/01/06 06:08:42;;;;;;;1.33;1.00;;;20.90;31.50;;;;;;4995495;28;20460;-42
2021/01/06 06:11:32;;;;;;;0.82;0.70;;;20.90;31.50;;;;;;4988716;28;20046;-43
2021/01/06 06:14:10;;;;;;;0.90;0.75;;;20.90;31.60;;;;;;4981332;28;20031;-44
2021/01/06 06:17:13;;;;;;;1.10;0.80;;;20.90;31.70;;;;;;4990003;28;20358;-42
2021/01/06 06:19:58;;;;;;;1.20;0.90;;;20.90;31.70;;;;;;4987108;28;20404;-42
2021/01/06 06:22:38;;;;;;;1.23;0.80;;;20.90;31.70;;;;;;4978440;28;20410;-41
2021/01/06 06:25:25;;;;;;;0.85;0.68;;;20.80;31.60;;;;;;4979590;28;20038;-43
2021/01/06 06:28:06;;;;;;;1.60;0.90;;;20.80;31.60;;;;;;4993492;28;20046;-45
2021/01/06 06:30:41;;;;;;;1.30;0.80;;;20.90;31.70;;;;;;4977990;28;20094;-44
2021/01/06 06:33:21;;;;;;;2.00;0.88;;;20.80;31.60;;;;;;4991662;28;20455;-43
2021/01/06 06:35:50;;;;;;;0.95;0.77;;;20.80;31.60;;;;;;4978025;28;20031;-43
2021/01/06 06:38:18;;;;;;;1.05;0.80;;;20.80;31.60;;;;;;4993387;28;20026;-42
2021/01/06 06:40:57;;;;;;;1.00;0.90;;;20.80;31.50;;;;;;4987375;28;20061;-42
2021/01/06 06:43:32;;;;;;;0.98;0.63;;;20.90;31.60;;;;;;4992979;28;20045;-41
2021/01/06 06:46:10;;;;;;;;;;;20.80;31.50;;;;;;4994355;28;20049;-46
2021/01/06 06:48:46;;;;;;;0.85;0.77;;;20.80;31.50;;;;;;4992360;28;19909;-44
2021/01/06 06:51:19;;;;;;;1.60;0.85;;;20.80;31.50;;;;;;4989127;28;20350;-43
2021/01/06 06:53:55;;;;;;;1.00;0.82;;;20.80;31.70;;;;;;4982560;28;20140;-43
2021/01/06 06:56:40;;;;;;;1.33;1.00;;;20.80;31.60;;;;;;4977707;28;20458;-43
2021/01/06 06:59:40;;;;;;;0.88;0.80;;;20.80;31.60;;;;;;4993886;28;20026;-42
2021/01/06 07:02:06;;;;;;;1.05;0.90;;;20.80;31.50;;;;;;4974182;28;20130;-42
2021/01/06 07:04:31;;;;;;;3.83;1.15;;;20.80;31.50;;;;;;4992607;28;20126;-40
2021/01/06 07:07:00;;;;;;;1.30;0.90;;;20.80;31.40;;;;;;4993505;28;20374;-41
2021/01/06 07:09:29;;;;;;;1.38;0.90;;;20.80;31.30;;;;;;4977487;28;20049;-41
2021/01/06 07:12:01;;;;;;;1.60;1.02;;;20.80;31.30;;;;;;4993031;28;20088;-44
2021/01/06 07:14:30;;;;;;;1.83;0.93;;;20.80;31.20;;;;;;4983630;28;20031;-45
2021/01/06 07:16:59;;;;;;;1.38;0.90;;;20.80;31.20;;;;;;4980597;28;20026;-42
2021/01/06 07:19:48;;;;;;;0.65;0.65;;;20.80;31.20;;;;;;4978082;28;20026;-41
2021/01/06 07:22:23;;;;;;;1.17;0.88;;;20.80;31.10;;;;;;4977628;28;20039;-42
2021/01/06 07:25:12;;;;;;;1.33;0.88;;;20.80;31.10;;;;;;4986153;28;20092;-44
2021/01/06 07:27:38;;;;;;;2.03;1.15;;;20.70;31.10;;;;;;4977269;28;20054;-42
2021/01/06 07:30:05;;;;;;;1.40;0.80;;;20.70;31.10;;;;;;4987158;28;20034;-42
2021/01/06 07:32:39;;;;;;;1.85;0.70;;;20.70;31.80;;;;;;4977685;28;20031;-45
2021/01/06 07:35:21;;;;;;;1.55;0.93;;;20.70;31.10;;;;;;4986417;28;20034;-43
2021/01/06 07:37:58;;;;;;;2.42;0.95;;;20.70;31.10;;;;;;4994355;28;20030;-45
2021/01/06 07:40:36;;;;;;;1.80;1.10;;;20.70;31.20;;;;;;4987583;28;20053;-44
2021/01/06 07:43:08;;;;;;;1.48;1.00;;;20.70;31.20;;;;;;4982986;28;20066;-42
2021/01/06 07:45:35;;;;;;;1.52;1.05;;;20.70;31.20;;;;;;4981980;28;20038;-41
2021/01/06 07:48:21;;;;;;;1.35;0.85;;;20.70;31.30;;;;;;4977864;28;20166;-43
2021/01/06 07:51:06;;;;;;;1.80;1.10;;;20.70;31.30;;;;;;4986408;28;20508;-46
2021/01/06 07:54:00;;;;;;;1.05;0.80;;;20.70;31.20;;;;;;4995933;28;20070;-49
2021/01/06 07:56:40;;;;;;;1.40;1.05;;;20.70;31.30;;;;;;4993480;28;20089;-44
2021/01/06 07:59:23;;;;;;;1.65;0.90;;;20.60;31.50;;;;;;4990847;28;20034;-44
2021/01/06 08:02:17;;;;;;;1.15;0.82;;;20.60;31.80;;;;;;5000728;28;20042;-46
2021/01/06 08:05:04;;;;;;;1.88;1.00;;;20.70;32.30;;;;;;5004162;28;20033;-49
2021/01/06 08:07:30;;;;;;;1.85;0.95;;;20.70;32.70;;;;;;4975894;28;20098;-51
2021/01/06 08:09:55;;;;;;;1.77;1.25;;;20.70;32.90;;;;;;4980220;28;20050;-56
2021/01/06 08:12:23;;;;;;;1.60;1.10;;;20.80;33.20;;;;;;4986004;28;20046;-52
2021/01/06 08:15:11;;;;;;;1.98;1.05;;;20.80;33.40;;;;;;4980257;28;20082;-55
2021/01/06 08:17:56;;;;;;;2.15;1.20;;;20.90;33.50;;;;;;4986100;28;20046;-50
2021/01/06 08:20:27;;;;;;;2.20;1.00;;;21.00;33.50;;;;;;4978432;28;20027;-48
2021/01/06 08:22:56;;;;;;;1.80;1.10;;;21.10;33.60;;;;;;4971062;28;20382;-52
2021/01/06 08:25:29;;;;;;;3.13;1.48;;;21.10;33.50;;;;;;4993136;28;20026;-56
2021/01/06 08:27:55;;;;;;;2.33;1.15;;;21.20;33.50;;;;;;4977734;28;20027;-58
2021/01/06 08:30:27;;;;;;;1.77;1.25;;;21.30;33.50;;;;;;4981222;28;20026;-52
2021/01/06 08:33:13;;;;;;;2.90;1.25;;;21.40;33.40;;;;;;4995490;28;20062;-51
2021/01/06 08:35:45;;;;;;;2.40;1.30;;;21.50;33.20;;;;;;4991247;28;20030;-55
2021/01/06 08:38:31;;;;;;;1.95;0.90;;;21.70;33.10;;;;;;4978860;28;20307;-49
2021/01/06 08:41:15;;;;;;;1.55;1.10;;;21.90;32.80;;;;;;4985708;28;20034;-54
2021/01/06 08:43:41;;;;;;;;;;;22.00;32.60;;;;;;4994225;28;20449;-51
2021/01/06 08:46:21;;;;;;;2.13;1.10;;;22.20;32.40;;;;;;4994908;28;19992;-56
2021/01/06 08:48:46;;;;;;;1.90;1.08;;;22.30;32.10;;;;;;4987689;28;20039;-56
2021/01/06 08:51:15;;;;;;;2.40;1.20;;;22.50;31.90;;;;;;4976070;28;20060;-53
2021/01/06 08:53:44;;;;;;;2.42;1.00;;;22.70;31.70;;;;;;4987676;28;20400;-49
2021/01/06 08:56:29;;;;;;;2.42;1.08;;;22.80;31.60;;;;;;4990140;28;20037;-52
2021/01/06 08:58:56;;;;;;;1.88;1.38;;;23.00;31.30;;;;;;4975687;28;20064;-52
2021/01/06 09:01:49;;;;;;;2.05;1.10;;;23.20;31.20;;;;;;4976764;28;20115;-47
2021/01/06 09:04:20;;;;;;;2.08;1.10;;;23.30;31.00;;;;;;4975420;28;20045;-48
2021/01/06 09:06:51;;;;;;;2.60;0.95;;;23.40;30.80;;;;;;4990403;28;20151;-47
2021/01/06 09:09:35;;;;;;;2.08;1.10;;;23.40;30.60;;;;;;4994702;28;20042;-44
2021/01/06 09:12:01;;;;;;;1.35;0.80;;;23.40;30.40;;;;;;4977925;28;20136;-45
2021/01/06 09:14:36;;;;;;;1.52;1.00;;;23.40;30.30;;;;;;4975241;28;20399;-45
2021/01/06 09:17:11;;;;;;;2.25;0.82;;;23.40;30.10;;;;;;4977641;28;20034;-48
2021/01/06 09:19:48;;;;;;;1.65;1.00;;;23.40;30.00;;;;;;4989295;28;20031;-48
2021/01/06 09:22:16;;;;;;;1.17;0.80;;;23.40;30.00;;;;;;4981719;28;20062;-46
2021/01/06 09:24:43;;;;;;;0.85;0.60;;;23.40;29.90;;;;;;4990001;28;20077;-45
2021/01/06 09:27:28;;;;;;;0.90;0.60;;;23.40;29.90;;;;;;4994065;28;20042;-48
2021/01/06 09:29:56;;;;;;;1.23;0.70;;;23.40;29.80;;;;;;4993469;28;20026;-48
2021/01/06 09:32:43;;;;;;;1.85;0.50;;;23.40;29.70;;;;;;4977478;28;20410;-45
2021/01/06 09:35:13;;;;;;;1.15;0.80;;;23.40;29.60;;;;;;4993172;28;20033;-51
2021/01/06 09:37:46;;;;;;;1.10;0.75;;;23.30;29.50;;;;;;4994397;28;20338;-48
2021/01/06 09:40:17;;;;;;;1.40;0.70;;;23.30;29.50;;;;;;4992983;28;20045;-46
2021/01/06 09:42:45;;;;;;;0.90;0.65;;;23.30;29.40;;;;;;4988021;28;20049;-47
2021/01/06 09:45:22;;;;;;;2.42;0.98;;;23.30;29.40;;;;;;4987200;28;20342;-48
2021/01/06 09:47:50;;;;;;;0.60;0.50;;;23.30;29.30;;;;;;4998460;28;20121;-46
2021/01/06 09:50:18;;;;;;;0.88;0.70;;;23.40;29.30;;;;;;4988055;28;20034;-47
2021/01/06 09:52:47;;;;;;;1.10;0.70;;;23.30;29.20;;;;;;4982580;28;20053;-50
2021/01/06 09:55:16;;;;;;;0.77;0.70;;;23.40;29.20;;;;;;5008230;28;20049;-48
2021/01/06 09:57:44;;;;;;;1.33;0.85;;;23.30;29.10;;;;;;4997727;28;20445;-46
2021/01/06 10:00:41;;;;;;;3.22;1.00;;;23.40;29.10;;;;;;4993718;28;20297;-41
2021/01/06 10:03:08;;;;;;;2.17;0.68;;;23.30;28.50;;;;;;4990933;28;20053;-45
2021/01/06 10:05:51;;;;;;;1.25;0.65;;;23.30;28.70;;;;;;4997585;28;20034;-42
2021/01/06 10:08:40;;;;;;;1.02;0.80;;;23.30;28.70;;;;;;5004211;28;20025;-47
2021/01/06 10:11:39;;;;;;;2.53;0.75;;;23.30;28.60;;;;;;5008120;28;20065;-42
2021/01/06 10:14:21;;;;;;;1.10;0.68;;;23.30;28.60;;;;;;4998047;28;20030;-45
2021/01/06 10:17:06;;;;;;;0.68;0.65;;;23.30;28.60;;;;;;4993799;28;20049;-45
2021/01/06 10:19:47;;;;;;;1.40;0.70;;;23.30;28.60;;;;;;4987472;28;20444;-45
2021/01/06 10:22:34;;;;;;;1.90;0.60;;;23.30;29.10;;;;;;4997369;28;20041;-45
2021/01/06 10:25:31;;;;;;;1.02;0.73;;;23.20;28.60;;;;;;4990341;28;20027;-42
2021/01/06 10:28:16;;;;;;;1.67;0.70;;;23.20;28.60;;;;;;4988115;28;20053;-45
2021/01/06 10:30:58;;;;;;;1.20;0.70;;;23.20;28.60;;;;;;4984302;28;20461;-42
2021/01/06 10:33:24;;;;;;;0.50;0.50;;;23.20;28.60;;;;;;4991018;28;20034;-43
2021/01/06 10:36:16;;;;;;;0.82;0.60;;;23.20;28.60;;;;;;4978131;28;20452;-43
2021/01/06 10:38:44;;;;;;;0.80;0.70;;;23.20;28.50;;;;;;4992386;28;20444;-44
2021/01/06 10:41:19;;;;;;;0.75;0.50;;;23.20;28.50;;;;;;4997254;28;20345;-42
2021/01/06 10:43:50;;;;;;;1.17;0.68;;;23.20;28.50;;;;;;4993688;28;20030;-42
2021/01/06 10:46:38;;;;;;;1.17;0.63;;;23.10;28.50;;;;;;4996164;28;20042;-43
2021/01/06 10:49:10;;;;;;;0.73;0.50;;;23.10;28.40;;;;;;4977881;28;20030;-43
2021/01/06 10:51:54;;;;;;;1.05;0.70;;;23.10;28.50;;;;;;4985314;28;20108;-44
2021/01/06 10:54:44;;;;;;;1.38;0.75;;;23.10;28.50;;;;;;4988980;28;20478;-46
2021/01/06 10:57:42;;;;;;;0.80;0.52;;;23.10;28.50;;;;;;4996570;28;20613;-41
2021/01/06 11:00:18;;;;;;;1.08;0.65;;;23.10;28.50;;;;;;4992885;28;20058;-44
2021/01/06 11:03:08;;;;;;;0.85;0.50;;;23.10;28.50;;;;;;4987889;28;20054;-41
2021/01/06 11:05:52;;;;;;;0.85;0.40;;;23.10;28.60;;;;;;4991904;28;20034;-44
2021/01/06 11:08:32;;;;;;;0.93;0.60;;;23.10;29.00;;;;;;4991141;28;20346;-40
2021/01/06 11:11:22;;;;;;;0.50;0.50;;;23.00;28.50;;;;;;4995301;28;20315;-43
2021/01/06 11:14:19;;;;;;;0.55;0.40;;;23.00;28.50;;;;;;4996534;28;20030;-45
2021/01/06 11:16:50;;;;;;;0.77;0.52;;;23.00;28.50;;;;;;4988589;28;20027;-42
2021/01/06 11:19:36;;;;;;;0.70;0.52;;;23.00;28.50;;;;;;4986045;28;20046;-48
2021/01/06 11:22:32;;;;;;;0.60;0.40;;;23.00;28.50;;;;;;4977127;28;20045;-44
2021/01/06 11:25:26;;;;;;;1.52;1.10;;;23.00;28.50;;;;;;4979282;28;20066;-43
2021/01/06 11:27:55;;;;;;;1.77;0.98;;;22.90;27.80;;;;;;4988637;28;20042;-46
2021/01/06 11:30:32;;;;;;;0.73;0.60;;;22.80;28.00;;;;;;4994896;28;20038;-50
2021/01/06 11:33:20;;;;;;;1.63;0.70;;;22.80;28.30;;;;;;4994802;28;20066;-46
2021/01/06 11:35:58;;;;;;;3.08;0.68;;;22.80;28.50;;;;;;4977015;28;20406;-44
2021/01/06 11:38:41;;;;;;;0.52;0.50;;;22.90;28.80;;;;;;4985844;28;20045;-44
2021/01/06 11:41:16;;;;;;;0.80;0.60;;;22.80;28.90;;;;;;4996330;28;20041;-43
2021/01/06 11:43:58;;;;;;;2.67;0.82;;;22.80;29.10;;;;;;4996320;28;20038;-49
2021/01/06 11:46:26;;;;;;;1.23;0.65;;;22.80;29.20;;;;;;4988873;28;20153;-49
2021/01/06 11:49:17;;;;;;;1.08;0.80;;;22.80;29.30;;;;;;4976541;28;20038;-43
2021/01/06 11:52:19;;;;;;;1.30;0.70;;;22.80;29.50;;;;;;4964348;28;20047;-42
2021/01/06 11:54:51;;;;;;;0.88;0.73;;;22.90;29.60;;;;;;4984834;28;20346;-42
2021/01/06 11:57:29;;;;;;;1.70;0.90;;;22.80;29.60;;;;;;4991774;28;20061;-44
2021/01/06 12:00:26;;;;;;;4.15;0.70;;;22.80;29.50;;;;;;4992040;28;20038;-42
2021/01/06 12:03:06;;;;;;;1.08;0.90;;;22.80;29.50;;;;;;4987178;28;20081;-42
2021/01/06 12:05:35;;;;;;;0.85;0.60;;;22.80;29.40;;;;;;4993030;28;20030;-47
2021/01/06 12:08:29;;;;;;;1.10;0.77;;;22.90;29.40;;;;;;4992510;28;20026;-47
2021/01/06 12:11:12;;;;;;;3.20;0.77;;;23.00;29.30;;;;;;4985598;28;20125;-52
2021/01/06 12:13:55;;;;;;;0.60;0.60;;;23.10;29.40;;;;;;4980038;28;20022;-43
2021/01/06 12:16:46;;;;;;;2.55;0.70;;;23.30;29.50;;;;;;4992546;28;20117;-52
2021/01/06 12:19:50;;;;;;;0.63;0.63;;;23.30;29.50;;;;;;4992023;28;20042;-43
2021/01/06 12:22:18;;;;;;;3.03;0.90;;;23.50;29.50;;;;;;4921943;28;20108;-46
2021/01/06 12:24:49;;;;;;;0.80;0.70;;;23.60;29.40;;;;;;4989322;28;20057;-47
2021/01/06 12:27:26;;;;;;;1.80;0.90;;;23.60;29.30;;;;;;4995037;28;20133;-45
2021/01/06 12:29:56;;;;;;;1.58;0.75;;;23.70;29.30;;;;;;4992546;28;20413;-44
2021/01/06 12:32:54;;;;;;;1.20;0.70;;;23.70;29.20;;;;;;4991846;28;20022;-44
2021/01/06 12:35:19;;;;;;;1.33;0.90;;;23.80;29.20;;;;;;4993561;28;20118;-51
2021/01/06 12:38:16;;;;;;;2.78;0.93;;;23.90;29.20;;;;;;4993602;28;20505;-44
2021/01/06 12:41:07;;;;;;;0.85;0.70;;;23.90;29.30;;;;;;4989734;28;20026;-44
2021/01/06 12:43:46;;;;;;;1.10;0.80;;;24.00;29.40;;;;;;4987873;28;20041;-49
2021/01/06 12:46:18;;;;;;;3.50;1.00;;;24.00;29.50;;;;;;4993356;28;20469;-42
2021/01/06 12:49:00;;;;;;;1.23;0.80;;;24.10;29.60;;;;;;4992438;28;20056;-44
2021/01/06 12:51:32;;;;;;;1.05;0.80;;;24.10;29.60;;;;;;4989066;28;20037;-43
2021/01/06 12:54:02;;;;;;;2.10;1.08;;;24.20;29.60;;;;;;4980784;28;20066;-45
2021/01/06 12:56:31;;;;;;;2.00;0.73;;;24.20;29.60;;;;;;4992675;28;20038;-45
2021/01/06 12:59:14;;;;;;;1.45;0.77;;;24.20;29.60;;;;;;4988350;28;20341;-55
2021/01/06 13:01:59;;;;;;;1.70;0.80;;;24.30;29.70;;;;;;4987662;28;20122;-45
2021/01/06 13:04:38;;;;;;;3.47;1.00;;;24.30;29.40;;;;;;4983766;28;20027;-44
2021/01/06 13:07:13;;;;;;;3.50;0.85;;;24.30;29.30;;;;;;4989631;28;20062;-44
2021/01/06 13:10:16;;;;;;;1.15;0.82;;;24.40;29.20;;;;;;4992576;28;20026;-46
2021/01/06 13:12:45;;;;;;;1.20;0.68;;;24.40;29.10;;;;;;4990725;28;20148;-45
2021/01/06 13:15:25;;;;;;;1.00;0.77;;;24.40;29.00;;;;;;4992058;28;20037;-45
2021/01/06 13:18:01;;;;;;;2.03;0.70;;;24.40;29.00;;;;;;4988389;28;20426;-43
2021/01/06 13:21:02;;;;;;;1.52;0.77;;;24.50;29.00;;;;;;4997683;28;20687;-46
2021/01/06 13:23:37;;;;;;;0.93;0.80;;;24.50;28.90;;;;;;4961105;28;20042;-45
2021/01/06 13:26:28;;;;;;;5.00;0.80;;;24.50;29.30;;;;;;4997841;28;20046;-45
2021/01/06 13:29:11;;;;;;;1.83;1.05;;;24.60;28.70;;;;;;4986512;28;20050;-46
2021/01/06 13:31:49;;;;;;;1.13;0.82;;;24.60;28.60;;;;;;4998161;28;20034;-44
2021/01/06 13:34:34;;;;;;;0.90;0.60;;;24.60;28.60;;;;;;4985421;28;20441;-42
2021/01/06 13:37:09;;;;;;;;;;;24.60;28.60;;;;;;4984298;28;20449;-44